createdAt,value
2023-03-03T01:24:55.639Z,69.90
2023-03-03T01:29:45.948Z,69.20
2023-03-03T01:32:15.756Z,69.10
2023-03-03T01:34:45.465Z,69.10
2023-03-03T01:37:15.139Z,68.90
2023-03-03T01:39:44.786Z,68.60
2023-03-03T01:42:14.368Z,69.00
2023-03-03T01:44:44.331Z,68.60
2023-03-03T01:47:31.970Z,68.50
2023-03-03T01:50:06.402Z,68.20
2023-03-03T01:52:46.036Z,67.90
2023-03-03T01:55:22.800Z,67.20
2023-03-03T01:58:10.300Z,66.20
2023-03-03T02:00:43.898Z,65.70
2023-03-03T02:03:13.907Z,65.10
2023-03-03T02:05:45.188Z,64.60
2023-03-03T02:08:21.015Z,63.70
2023-03-03T02:10:51.087Z,63.80
2023-03-03T02:13:20.682Z,63.30
2023-03-03T02:15:50.389Z,62.70
2023-03-03T02:18:22.660Z,60.70
2023-03-03T02:21:18.989Z,60.30
2023-03-03T02:24:15.353Z,59.60
2023-03-03T02:26:47.924Z,60.10
2023-03-03T02:29:17.663Z,59.60
2023-03-03T02:31:47.301Z,59.60
2023-03-03T02:34:17.023Z,58.70
2023-03-03T02:36:46.725Z,58.80
2023-03-03T02:39:26.445Z,58.70
2023-03-03T02:42:15.576Z,58.40
2023-03-03T02:44:45.332Z,57.70
2023-03-03T02:47:15.318Z,57.30
2023-03-03T02:49:45.042Z,56.00
2023-03-03T02:52:16.491Z,56.10
2023-03-03T02:54:46.149Z,56.40
2023-03-03T02:57:15.862Z,56.20
2023-03-03T02:59:45.501Z,56.20
2023-03-03T03:02:15.371Z,55.80
2023-03-03T03:04:44.955Z,55.30
2023-03-03T03:07:14.565Z,55.00
2023-03-03T03:09:44.548Z,54.50
2023-03-03T03:12:14.172Z,54.30
2023-03-03T03:14:43.789Z,54.00
2023-03-03T03:17:14.435Z,53.50
2023-03-03T03:19:44.101Z,53.40
2023-03-03T03:22:13.846Z,53.20
2023-03-03T03:24:43.620Z,53.00
2023-03-03T03:27:14.017Z,52.30
2023-03-03T03:29:43.722Z,52.30
2023-03-03T03:32:14.600Z,52.30
2023-03-03T03:34:44.207Z,52.00
2023-03-03T03:37:13.825Z,51.30
2023-03-03T03:39:43.657Z,51.40
2023-03-03T03:42:13.329Z,51.50
2023-03-03T03:44:43.100Z,51.40
2023-03-03T03:47:13.009Z,51.40
2023-03-03T03:49:42.746Z,51.30
2023-03-03T03:52:12.329Z,51.20
2023-03-03T03:54:42.018Z,50.50
2023-03-03T03:57:11.601Z,50.00
2023-03-03T03:59:41.219Z,49.60
2023-03-03T04:02:11.059Z,49.90
2023-03-03T04:04:40.664Z,48.80
2023-03-03T04:07:11.709Z,47.20
2023-03-03T04:09:41.686Z,48.00
2023-03-03T04:12:11.716Z,48.60
2023-03-03T04:14:41.405Z,49.00
2023-03-03T04:17:12.747Z,47.00
2023-03-03T04:19:42.344Z,46.90
2023-03-03T04:22:12.054Z,47.10
2023-03-03T04:24:43.277Z,47.30
2023-03-03T04:27:13.365Z,47.70
2023-03-03T04:29:44.586Z,47.90
2023-03-03T04:32:14.370Z,47.90
2023-03-03T04:34:44.084Z,47.80
2023-03-03T04:37:14.057Z,47.30
2023-03-03T04:39:44.130Z,47.10
2023-03-03T04:42:14.013Z,46.80
2023-03-03T04:44:43.827Z,46.60
2023-03-03T04:47:13.630Z,45.20
2023-03-03T04:49:43.445Z,44.40
2023-03-03T04:52:13.247Z,43.10
2023-03-03T04:54:42.998Z,43.90
2023-03-03T04:57:12.798Z,43.90
2023-03-03T04:59:42.603Z,43.70
2023-03-03T05:02:12.624Z,44.30
2023-03-03T05:04:42.415Z,44.00
2023-03-03T05:07:12.250Z,43.20
2023-03-03T05:09:42.046Z,42.60
2023-03-03T05:12:11.752Z,42.90
2023-03-03T05:14:41.525Z,43.60
2023-03-03T05:17:11.333Z,43.80
2023-03-03T05:19:41.183Z,43.90
2023-03-03T05:22:11.055Z,44.30
2023-03-03T05:24:40.736Z,43.70
2023-03-03T05:27:10.674Z,44.00
2023-03-03T05:29:40.529Z,42.80
2023-03-03T05:32:11.071Z,43.00
2023-03-03T05:34:40.807Z,42.70
2023-03-03T05:37:10.756Z,41.90
2023-03-03T05:39:40.446Z,41.90
2023-03-03T05:42:11.113Z,40.50
2023-03-03T05:44:41.049Z,40.00
2023-03-03T05:47:11.454Z,40.70
2023-03-03T05:49:41.145Z,41.60
2023-03-03T05:52:10.945Z,41.80
2023-03-03T05:54:40.587Z,42.10
2023-03-03T05:57:10.297Z,42.50
2023-03-03T05:59:40.101Z,42.60
2023-03-03T06:02:09.857Z,42.80
2023-03-03T06:04:39.559Z,42.90
2023-03-03T06:07:09.394Z,42.60
2023-03-03T06:09:39.011Z,42.60
2023-03-03T06:12:08.944Z,42.50
2023-03-03T06:14:38.626Z,40.70
2023-03-03T06:17:08.266Z,40.10
2023-03-03T06:19:38.169Z,40.80
2023-03-03T06:22:07.898Z,41.00
2023-03-03T06:24:38.123Z,41.60
2023-03-03T06:27:07.775Z,42.30
2023-03-03T06:29:37.538Z,42.60
2023-03-03T06:32:07.605Z,42.60
2023-03-03T06:34:38.349Z,42.40
2023-03-03T06:37:08.722Z,42.20
2023-03-03T06:39:38.396Z,42.10
2023-03-03T06:42:08.897Z,42.20
2023-03-03T06:44:39.173Z,41.20
2023-03-03T06:47:09.090Z,41.10
2023-03-03T06:49:38.893Z,41.50
2023-03-03T06:52:17.288Z,41.70
2023-03-03T06:54:47.250Z,41.50
2023-03-03T06:57:25.463Z,40.70
2023-03-03T06:59:57.677Z,41.10
2023-03-03T07:02:27.394Z,41.70
2023-03-03T07:04:58.979Z,41.60
2023-03-03T07:07:29.161Z,41.70
2023-03-03T07:09:59.988Z,41.60
2023-03-03T07:12:32.658Z,40.90
2023-03-03T07:15:29.330Z,41.20
2023-03-03T07:18:01.414Z,41.10
2023-03-03T07:20:38.698Z,40.80
2023-03-03T07:23:26.749Z,40.60
2023-03-03T07:25:56.872Z,41.00
2023-03-03T07:28:35.240Z,41.50
2023-03-03T07:31:18.571Z,41.50
2023-03-03T07:33:48.967Z,41.30
2023-03-03T07:36:38.032Z,41.30
2023-03-03T07:39:26.956Z,40.90
2023-03-03T07:42:04.130Z,40.60
2023-03-03T07:44:40.506Z,40.70
2023-03-03T07:47:31.945Z,40.70
2023-03-03T07:50:15.850Z,40.60
2023-03-03T07:52:58.346Z,40.40
2023-03-03T07:55:39.106Z,40.60
2023-03-03T07:58:25.267Z,40.60
2023-03-03T08:01:34.078Z,40.60
2023-03-03T08:04:03.804Z,40.10
2023-03-03T08:06:57.902Z,39.90
2023-03-03T08:09:37.650Z,40.20
2023-03-03T08:12:39.740Z,40.20
2023-03-03T08:15:33.266Z,39.80
2023-03-03T08:18:04.392Z,39.20
2023-03-03T08:20:46.605Z,39.40
2023-03-03T08:23:18.432Z,38.90
2023-03-03T08:25:48.752Z,39.30
2023-03-03T08:28:19.572Z,39.60
2023-03-03T08:30:49.753Z,39.80
2023-03-03T08:33:20.644Z,39.90
2023-03-03T08:35:51.655Z,40.00
2023-03-03T08:38:24.154Z,39.70
2023-03-03T08:40:54.138Z,39.80
2023-03-03T08:43:24.525Z,39.60
2023-03-03T08:46:01.301Z,39.70
2023-03-03T08:48:31.271Z,39.60
2023-03-03T08:51:01.644Z,39.50
2023-03-03T08:53:32.072Z,39.30
2023-03-03T08:56:01.833Z,39.90
2023-03-03T08:58:35.445Z,39.00
2023-03-03T09:01:06.177Z,39.40
2023-03-03T09:03:35.956Z,39.10
2023-03-03T09:06:05.868Z,39.30
2023-03-03T09:08:35.731Z,39.20
2023-03-03T09:11:05.707Z,38.90
2023-03-03T09:13:35.996Z,38.90
2023-03-03T09:16:16.497Z,39.00
2023-03-03T09:18:46.910Z,39.00
2023-03-03T09:21:25.397Z,38.90
2023-03-03T09:23:59.741Z,38.80
2023-03-03T09:26:42.349Z,38.60
2023-03-03T09:29:30.862Z,38.70
2023-03-03T09:32:04.495Z,38.60
2023-03-03T09:34:43.377Z,38.70
2023-03-03T09:37:42.137Z,38.70
2023-03-03T09:40:52.053Z,38.10
2023-03-03T09:44:00.069Z,37.90
2023-03-03T09:47:05.923Z,38.70
2023-03-03T09:49:56.586Z,38.40
2023-03-03T09:52:50.325Z,38.70
2023-03-03T09:55:37.061Z,38.90
2023-03-03T09:58:32.667Z,38.90
2023-03-03T10:01:41.578Z,39.10
2023-03-03T10:04:39.060Z,38.80
2023-03-03T10:07:40.400Z,38.80
2023-03-03T10:10:44.682Z,38.70
2023-03-03T10:13:40.771Z,38.80
2023-03-03T10:16:42.037Z,39.00
2023-03-03T10:19:40.049Z,39.20
2023-03-03T10:22:40.270Z,39.30
2023-03-03T10:25:45.437Z,39.40
2023-03-03T10:28:55.461Z,39.60
2023-03-03T10:31:54.724Z,39.60
2023-03-03T10:35:03.811Z,39.80
2023-03-03T10:38:12.549Z,39.80
2023-03-03T10:41:12.465Z,39.90
2023-03-03T10:44:12.543Z,40.00
2023-03-03T10:47:11.839Z,39.90
2023-03-03T10:50:09.444Z,40.20
2023-03-03T10:52:58.159Z,40.50
2023-03-03T10:55:57.755Z,40.70
2023-03-03T10:58:52.720Z,40.80
2023-03-03T11:01:46.901Z,40.90
2023-03-03T11:04:55.571Z,41.20
2023-03-03T11:07:48.410Z,41.50
2023-03-03T11:10:50.698Z,41.60
2023-03-03T11:13:44.091Z,41.70
2023-03-03T11:16:39.252Z,41.80
2023-03-03T11:19:32.761Z,42.00
2023-03-03T11:22:35.046Z,42.00
2023-03-03T11:25:42.024Z,42.10
2023-03-03T11:28:25.835Z,42.20
2023-03-03T11:31:12.774Z,42.30
2023-03-03T11:34:21.575Z,42.40
2023-03-03T11:37:09.102Z,42.60
2023-03-03T11:39:40.170Z,42.80
2023-03-03T11:42:50.102Z,43.00
2023-03-03T11:45:27.243Z,43.30
2023-03-03T11:48:19.044Z,43.50
2023-03-03T11:51:00.527Z,43.60
2023-03-03T11:53:58.435Z,43.50
2023-03-03T11:56:42.655Z,43.50
2023-03-03T11:59:51.457Z,43.60
2023-03-03T12:03:00.464Z,43.70
2023-03-03T12:05:55.596Z,43.90
2023-03-03T12:08:40.259Z,44.00
2023-03-03T12:11:24.730Z,44.00
2023-03-03T12:14:33.537Z,44.00
2023-03-03T12:17:21.595Z,44.10
2023-03-03T12:20:30.374Z,44.30
2023-03-03T12:23:39.219Z,44.50
2023-03-03T12:26:38.984Z,44.80
2023-03-03T12:29:51.159Z,44.90
2023-03-03T12:33:01.902Z,45.10
2023-03-03T12:36:03.371Z,45.30
2023-03-03T12:39:00.685Z,45.90
2023-03-03T12:41:42.176Z,45.80
2023-03-03T12:44:37.845Z,45.90
2023-03-03T12:47:25.081Z,46.10
2023-03-03T12:50:27.696Z,46.30
2023-03-03T12:53:27.621Z,46.60
2023-03-03T12:56:11.630Z,46.70
2023-03-03T12:59:13.438Z,46.70
2023-03-03T13:02:13.615Z,46.80
2023-03-03T13:04:53.867Z,47.50
2023-03-03T13:07:37.277Z,47.20
2023-03-03T13:10:40.917Z,47.80
2023-03-03T13:13:35.754Z,47.90
2023-03-03T13:16:17.114Z,48.20
2023-03-03T13:19:11.727Z,48.30
2023-03-03T13:21:55.594Z,48.50
2023-03-03T13:24:53.965Z,48.60
2023-03-03T13:27:29.735Z,48.80
2023-03-03T13:30:27.197Z,49.40
2023-03-03T13:33:16.701Z,50.00
2023-03-03T13:36:13.579Z,50.40
2023-03-03T13:39:07.521Z,50.30
2023-03-03T13:41:50.890Z,50.90
2023-03-03T13:44:45.338Z,51.00
2023-03-03T13:47:49.910Z,51.20
2023-03-03T13:50:48.587Z,51.50
2023-03-03T13:53:50.289Z,52.00
2023-03-03T13:56:40.060Z,52.10
2023-03-03T13:59:24.518Z,52.60
2023-03-03T14:02:33.608Z,52.50
2023-03-03T14:05:25.272Z,52.60
2023-03-03T14:08:23.272Z,52.50
2023-03-03T14:11:14.271Z,52.30
2023-03-03T14:14:04.503Z,52.50
2023-03-03T14:16:55.936Z,52.60
2023-03-03T14:20:03.198Z,52.80
2023-03-03T14:23:00.543Z,53.20
2023-03-03T14:25:50.317Z,54.00
2023-03-03T14:28:22.429Z,54.90
2023-03-03T14:30:53.652Z,55.10
2023-03-03T14:33:28.752Z,55.60
2023-03-03T14:36:06.613Z,55.10
2023-03-03T14:38:43.182Z,55.30
2023-03-03T14:41:21.601Z,55.60
2023-03-03T14:43:59.847Z,55.30
2023-03-03T14:46:39.741Z,55.60
2023-03-03T14:49:17.604Z,55.70
2023-03-03T14:51:50.406Z,55.40
2023-03-03T14:54:41.412Z,55.70
2023-03-03T14:57:48.510Z,55.80
2023-03-03T15:00:36.688Z,56.00
2023-03-03T15:03:29.162Z,55.60
2023-03-03T15:05:59.849Z,55.50
2023-03-03T15:08:41.112Z,55.60
2023-03-03T15:11:34.860Z,55.60
2023-03-03T15:14:31.172Z,56.00
2023-03-03T15:17:27.102Z,55.90
2023-03-03T15:20:35.841Z,55.70
2023-03-03T15:23:44.608Z,56.00
2023-03-03T15:26:43.175Z,56.10
2023-03-03T15:29:39.435Z,56.70
2023-03-03T15:32:43.780Z,56.10
2023-03-03T15:35:44.735Z,56.00
2023-03-03T15:38:40.726Z,56.00
2023-03-03T15:41:41.738Z,55.90
2023-03-03T15:44:36.332Z,55.80
2023-03-03T15:47:46.200Z,55.80
2023-03-03T15:50:55.080Z,56.10
2023-03-03T15:54:03.837Z,56.40
2023-03-03T15:56:58.252Z,57.10
2023-03-03T15:59:55.667Z,56.50
2023-03-03T16:02:50.662Z,56.70
2023-03-03T16:05:30.541Z,56.80
2023-03-03T16:08:21.886Z,57.10
2023-03-03T16:11:23.554Z,57.20
2023-03-03T16:14:29.494Z,57.50
2023-03-03T16:17:38.306Z,57.80
2023-03-03T16:20:22.460Z,57.60
2023-03-03T16:23:22.344Z,57.60
2023-03-03T16:26:09.863Z,57.30
2023-03-03T16:29:13.518Z,57.40
2023-03-03T16:32:24.424Z,57.40
2023-03-03T16:35:15.387Z,57.60
2023-03-03T16:38:03.812Z,57.70
2023-03-03T16:40:47.019Z,57.60
2023-03-03T16:43:55.842Z,58.00
2023-03-03T16:46:40.877Z,58.60
2023-03-03T16:49:42.637Z,58.50
2023-03-03T16:52:19.678Z,58.50
2023-03-03T16:55:04.973Z,58.50
2023-03-03T16:57:56.743Z,58.50
2023-03-03T17:00:39.709Z,58.60
2023-03-03T17:03:48.621Z,59.00
2023-03-03T17:06:25.362Z,58.90
2023-03-03T17:09:32.051Z,59.10
2023-03-03T17:12:41.547Z,59.10
2023-03-03T17:15:42.218Z,59.30
2023-03-03T17:18:38.848Z,59.50
2023-03-03T17:21:36.387Z,59.50
2023-03-03T17:24:33.178Z,59.20
2023-03-03T17:27:41.953Z,59.10
2023-03-03T17:30:39.248Z,59.10
2023-03-03T17:33:47.949Z,59.10
2023-03-03T17:36:49.747Z,59.00
2023-03-03T17:39:49.207Z,58.70
2023-03-03T17:42:51.647Z,59.20
2023-03-03T17:45:23.996Z,59.60
2023-03-03T17:48:33.558Z,59.60
2023-03-03T17:51:37.763Z,59.80
2023-03-03T17:54:37.060Z,59.60
2023-03-03T17:57:32.093Z,59.60
2023-03-03T18:00:35.003Z,59.50
2023-03-03T18:03:42.490Z,59.70
2023-03-03T18:06:33.951Z,59.80
2023-03-03T18:09:35.359Z,60.00
2023-03-03T18:12:34.380Z,59.90
2023-03-03T18:15:29.867Z,60.10
2023-03-03T18:18:07.487Z,60.20
2023-03-03T18:21:04.414Z,60.10
2023-03-03T18:23:43.801Z,60.20
2023-03-03T18:26:40.903Z,59.90
2023-03-03T18:29:30.744Z,59.90
2023-03-03T18:32:07.401Z,59.90
2023-03-03T18:34:42.199Z,59.80
2023-03-03T18:37:41.081Z,59.70
2023-03-03T18:40:35.039Z,59.70
2023-03-03T18:43:43.773Z,59.70
2023-03-03T18:46:49.362Z,59.80
2023-03-03T18:49:19.620Z,59.70
2023-03-03T18:51:52.411Z,59.70
2023-03-03T18:54:31.679Z,59.80
2023-03-03T18:57:19.637Z,59.70
2023-03-03T19:00:15.824Z,59.90
2023-03-03T19:02:56.624Z,59.90
2023-03-03T19:05:48.040Z,60.00
2023-03-03T19:08:46.229Z,60.10
2023-03-03T19:11:55.021Z,60.30
2023-03-03T19:14:38.964Z,60.60
2023-03-03T19:17:46.334Z,60.50
2023-03-03T19:20:20.044Z,60.50
2023-03-03T19:23:02.736Z,60.70
2023-03-03T19:25:36.504Z,60.70
2023-03-03T19:28:39.319Z,60.90
2023-03-03T19:31:40.244Z,60.90
2023-03-03T19:34:41.839Z,60.90
2023-03-03T19:37:43.082Z,60.80
2023-03-03T19:40:46.383Z,61.00
2023-03-03T19:43:52.758Z,60.90
2023-03-03T19:46:43.168Z,60.90
2023-03-03T19:49:52.053Z,60.90
2023-03-03T19:52:40.982Z,61.10
2023-03-03T19:55:40.141Z,61.10
2023-03-03T19:58:38.080Z,61.20
2023-03-03T20:01:13.947Z,61.30
2023-03-03T20:04:17.848Z,61.80
2023-03-03T20:07:29.209Z,61.50
2023-03-03T20:10:38.120Z,61.50
2023-03-03T20:13:35.624Z,61.80
2023-03-03T20:16:36.510Z,62.40
2023-03-03T20:19:45.526Z,62.50
2023-03-03T20:22:30.085Z,62.30
2023-03-03T20:25:39.039Z,62.40
2023-03-03T20:28:48.024Z,62.50
2023-03-03T20:31:34.882Z,63.20
2023-03-03T20:34:21.857Z,62.30
2023-03-03T20:37:31.568Z,62.40
2023-03-03T20:40:29.350Z,62.50
2023-03-03T20:43:21.626Z,62.20
2023-03-03T20:46:30.442Z,62.60
2023-03-03T20:49:33.546Z,62.30
2023-03-03T20:52:14.985Z,62.00
2023-03-03T20:55:14.248Z,62.10
2023-03-03T20:58:01.371Z,62.20
2023-03-03T21:00:52.877Z,62.00
2023-03-03T21:03:38.099Z,62.10
2023-03-03T21:06:17.204Z,61.80
2023-03-03T21:09:06.396Z,61.80
2023-03-03T21:11:45.616Z,61.70
2023-03-03T21:14:32.987Z,61.50
2023-03-03T21:17:13.218Z,61.80
2023-03-03T21:19:42.891Z,61.80
2023-03-03T21:22:12.849Z,61.60
2023-03-03T21:25:02.035Z,61.50
2023-03-03T21:27:33.948Z,61.60
2023-03-03T21:30:10.540Z,61.60
2023-03-03T21:32:50.771Z,61.50
2023-03-03T21:35:23.616Z,61.40
2023-03-03T21:38:01.125Z,61.40
2023-03-03T21:40:32.929Z,61.30
2023-03-03T21:43:03.301Z,61.40
2023-03-03T21:45:33.057Z,61.20
2023-03-03T21:48:05.874Z,61.40
2023-03-03T21:50:37.798Z,61.20
2023-03-03T21:53:07.580Z,61.20
2023-03-03T21:55:38.168Z,61.10
2023-03-03T21:58:07.903Z,60.90
2023-03-03T22:00:37.531Z,60.70
2023-03-03T22:03:07.329Z,60.60
2023-03-03T22:05:37.046Z,60.50
2023-03-03T22:08:06.890Z,60.50
2023-03-03T22:10:36.814Z,60.40
2023-03-03T22:13:06.527Z,60.30
2023-03-03T22:15:36.238Z,60.50
2023-03-03T22:18:06.078Z,60.50
2023-03-03T22:20:35.757Z,60.50
2023-03-03T22:23:05.349Z,60.70
2023-03-03T22:25:35.164Z,60.70
2023-03-03T22:28:04.937Z,60.90
2023-03-03T22:30:34.621Z,61.10
2023-03-03T22:33:04.359Z,61.10
2023-03-03T22:35:34.402Z,61.40
2023-03-03T22:38:05.082Z,61.20
2023-03-03T22:40:35.415Z,61.40
2023-03-03T22:43:05.175Z,61.70
2023-03-03T22:45:35.548Z,61.60
2023-03-03T22:48:05.678Z,61.60
2023-03-03T22:50:41.038Z,61.50
2023-03-03T22:53:10.787Z,61.50
2023-03-03T22:55:40.796Z,61.50
2023-03-03T22:58:11.456Z,61.40
2023-03-03T23:00:43.401Z,61.30
2023-03-03T23:03:14.005Z,61.30
2023-03-03T23:05:44.114Z,61.30
2023-03-03T23:08:16.956Z,61.40
2023-03-03T23:10:46.697Z,61.30
2023-03-03T23:13:16.793Z,61.40
2023-03-03T23:15:46.624Z,61.30
2023-03-03T23:18:16.430Z,61.40
2023-03-03T23:20:47.580Z,61.40
2023-03-03T23:23:17.306Z,61.50
2023-03-03T23:25:49.855Z,61.50
2023-03-03T23:28:20.900Z,61.60
2023-03-03T23:30:52.313Z,61.80
2023-03-03T23:33:22.196Z,61.90
2023-03-03T23:35:51.876Z,62.20
2023-03-03T23:38:21.646Z,62.40
2023-03-03T23:40:51.478Z,62.50
2023-03-03T23:43:21.340Z,62.80
2023-03-03T23:45:51.047Z,62.70
2023-03-03T23:48:22.404Z,62.80
2023-03-03T23:50:52.187Z,62.90
2023-03-03T23:53:21.771Z,63.10
2023-03-03T23:55:52.098Z,63.20
2023-03-03T23:58:21.704Z,63.30
